sensor_id;sensor_type;location;lat;lon;timestamp;temperature;humidity
16964;DHT22;8598;50.508;10.436;2023-03-14T00:02:13;9.30;99.90
16964;DHT22;8598;50.508;10.436;2023-03-14T00:04:40;9.30;99.90
16964;DHT22;8598;50.508;10.436;2023-03-14T00:07:07;9.30;99.90
16964;DHT22;8598;50.508;10.436;2023-03-14T00:09:33;9.20;99.90
16964;DHT22;8598;50.508;10.436;2023-03-14T00:12:00;9.20;99.90
16964;DHT22;8598;50.508;10.436;2023-03-14T00:14:30;9.20;99.90
16964;DHT22;8598;50.508;10.436;2023-03-14T00:16:57;9.20;99.90
16964;DHT22;8598;50.508;10.436;2023-03-14T00:19:24;9.20;99.90
16964;DHT22;8598;50.508;10.436;2023-03-14T00:21:50;9.20;99.90
16964;DHT22;8598;50.508;10.436;2023-03-14T00:24:17;9.20;99.90
16964;DHT22;8598;50.508;10.436;2023-03-14T00:26:43;9.10;99.90
16964;DHT22;8598;50.508;10.436;2023-03-14T00:29:10;9.10;99.90
16964;DHT22;8598;50.508;10.436;2023-03-14T00:31:38;9.10;99.90
16964;DHT22;8598;50.508;10.436;2023-03-14T00:34:05;9.10;99.90
16964;DHT22;8598;50.508;10.436;2023-03-14T00:36:31;9.10;99.90
16964;DHT22;8598;50.508;10.436;2023-03-14T00:38:58;9.10;99.90
16964;DHT22;8598;50.508;10.436;2023-03-14T00:41:24;9.10;99.90
16964;DHT22;8598;50.508;10.436;2023-03-14T00:43:51;9.10;99.90
16964;DHT22;8598;50.508;10.436;2023-03-14T00:46:18;9.10;99.90
16964;DHT22;8598;50.508;10.436;2023-03-14T00:48:46;9.00;99.90
16964;DHT22;8598;50.508;10.436;2023-03-14T00:51:14;9.00;99.90
16964;DHT22;8598;50.508;10.436;2023-03-14T00:53:41;9.10;99.90
16964;DHT22;8598;50.508;10.436;2023-03-14T00:56:10;9.10;99.90
16964;DHT22;8598;50.508;10.436;2023-03-14T00:58:37;9.00;99.90
16964;DHT22;8598;50.508;10.436;2023-03-14T01:01:08;9.00;99.90
16964;DHT22;8598;50.508;10.436;2023-03-14T01:03:35;9.00;99.90
16964;DHT22;8598;50.508;10.436;2023-03-14T01:06:12;9.00;99.90
16964;DHT22;8598;50.508;10.436;2023-03-14T01:08:39;9.00;99.90
16964;DHT22;8598;50.508;10.436;2023-03-14T01:11:07;9.00;99.90
16964;DHT22;8598;50.508;10.436;2023-03-14T01:13:34;8.90;99.90
16964;DHT22;8598;50.508;10.436;2023-03-14T01:16:02;9.00;99.90
16964;DHT22;8598;50.508;10.436;2023-03-14T01:18:30;8.90;99.90
16964;DHT22;8598;50.508;10.436;2023-03-14T01:20:57;8.90;99.90
16964;DHT22;8598;50.508;10.436;2023-03-14T01:23:25;8.90;99.90
16964;DHT22;8598;50.508;10.436;2023-03-14T01:25:52;8.90;99.90
16964;DHT22;8598;50.508;10.436;2023-03-14T01:28:18;8.90;99.90
16964;DHT22;8598;50.508;10.436;2023-03-14T01:30:45;9.00;99.90
16964;DHT22;8598;50.508;10.436;2023-03-14T01:33:12;9.00;99.90
16964;DHT22;8598;50.508;10.436;2023-03-14T01:35:40;9.00;99.90
16964;DHT22;8598;50.508;10.436;2023-03-14T01:38:06;8.90;99.90
16964;DHT22;8598;50.508;10.436;2023-03-14T01:40:41;8.90;99.90
16964;DHT22;8598;50.508;10.436;2023-03-14T01:43:14;8.90;99.90
16964;DHT22;8598;50.508;10.436;2023-03-14T01:48:55;8.90;99.90
16964;DHT22;8598;50.508;10.436;2023-03-14T01:51:26;8.90;99.90
16964;DHT22;8598;50.508;10.436;2023-03-14T01:53:59;8.80;99.90
16964;DHT22;8598;50.508;10.436;2023-03-14T01:56:30;8.80;99.90
16964;DHT22;8598;50.508;10.436;2023-03-14T01:58:58;8.80;99.90
16964;DHT22;8598;50.508;10.436;2023-03-14T02:01:26;8.80;99.90
16964;DHT22;8598;50.508;10.436;2023-03-14T02:03:55;8.80;99.90
16964;DHT22;8598;50.508;10.436;2023-03-14T02:06:24;8.80;99.90
16964;DHT22;8598;50.508;10.436;2023-03-14T02:08:53;8.90;99.90
16964;DHT22;8598;50.508;10.436;2023-03-14T02:11:20;8.90;99.90
16964;DHT22;8598;50.508;10.436;2023-03-14T02:13:49;8.90;99.90
16964;DHT22;8598;50.508;10.436;2023-03-14T02:16:16;8.90;99.90
16964;DHT22;8598;50.508;10.436;2023-03-14T02:18:43;8.90;99.90
16964;DHT22;8598;50.508;10.436;2023-03-14T02:21:16;8.90;99.90
16964;DHT22;8598;50.508;10.436;2023-03-14T02:23:55;8.90;99.90
16964;DHT22;8598;50.508;10.436;2023-03-14T02:26:28;8.90;99.90
16964;DHT22;8598;50.508;10.436;2023-03-14T02:28:57;8.90;99.90
16964;DHT22;8598;50.508;10.436;2023-03-14T02:31:24;8.90;99.90
16964;DHT22;8598;50.508;10.436;2023-03-14T02:33:51;8.90;99.90
16964;DHT22;8598;50.508;10.436;2023-03-14T02:36:19;8.90;99.90
16964;DHT22;8598;50.508;10.436;2023-03-14T02:38:49;8.90;99.90
16964;DHT22;8598;50.508;10.436;2023-03-14T02:41:16;8.90;99.90
16964;DHT22;8598;50.508;10.436;2023-03-14T02:43:43;8.90;99.90
16964;DHT22;8598;50.508;10.436;2023-03-14T02:46:13;8.90;99.90
16964;DHT22;8598;50.508;10.436;2023-03-14T02:48:42;9.00;99.90
16964;DHT22;8598;50.508;10.436;2023-03-14T02:51:10;8.90;99.90
16964;DHT22;8598;50.508;10.436;2023-03-14T02:53:38;8.90;99.90
16964;DHT22;8598;50.508;10.436;2023-03-14T02:56:07;8.90;99.90
16964;DHT22;8598;50.508;10.436;2023-03-14T02:58:34;8.90;99.90
16964;DHT22;8598;50.508;10.436;2023-03-14T03:01:01;8.90;99.90
16964;DHT22;8598;50.508;10.436;2023-03-14T03:03:29;8.90;99.90
16964;DHT22;8598;50.508;10.436;2023-03-14T03:05:56;8.90;99.90
16964;DHT22;8598;50.508;10.436;2023-03-14T03:08:24;8.90;99.90
16964;DHT22;8598;50.508;10.436;2023-03-14T03:10:51;8.90;99.90
16964;DHT22;8598;50.508;10.436;2023-03-14T03:13:18;8.90;99.90
16964;DHT22;8598;50.508;10.436;2023-03-14T03:15:45;8.90;99.90
16964;DHT22;8598;50.508;10.436;2023-03-14T03:18:12;8.90;99.90
16964;DHT22;8598;50.508;10.436;2023-03-14T03:20:40;8.90;99.90
16964;DHT22;8598;50.508;10.436;2023-03-14T03:23:06;9.00;99.90
16964;DHT22;8598;50.508;10.436;2023-03-14T03:25:33;8.90;99.90
16964;DHT22;8598;50.508;10.436;2023-03-14T03:28:00;8.90;99.90
16964;DHT22;8598;50.508;10.436;2023-03-14T03:30:27;8.90;99.90
16964;DHT22;8598;50.508;10.436;2023-03-14T03:32:54;8.90;99.90
16964;DHT22;8598;50.508;10.436;2023-03-14T03:35:20;8.90;99.90
16964;DHT22;8598;50.508;10.436;2023-03-14T03:37:48;9.00;99.90
16964;DHT22;8598;50.508;10.436;2023-03-14T03:40:15;9.00;99.90
16964;DHT22;8598;50.508;10.436;2023-03-14T03:42:42;9.00;99.90
16964;DHT22;8598;50.508;10.436;2023-03-14T03:45:09;8.90;99.90
16964;DHT22;8598;50.508;10.436;2023-03-14T03:47:36;8.90;99.90
16964;DHT22;8598;50.508;10.436;2023-03-14T03:50:03;8.90;99.90
16964;DHT22;8598;50.508;10.436;2023-03-14T03:52:29;8.90;99.90
16964;DHT22;8598;50.508;10.436;2023-03-14T03:54:57;8.90;99.90
16964;DHT22;8598;50.508;10.436;2023-03-14T03:57:24;8.90;99.90
16964;DHT22;8598;50.508;10.436;2023-03-14T03:59:51;8.80;99.90
16964;DHT22;8598;50.508;10.436;2023-03-14T04:02:17;8.90;99.90
16964;DHT22;8598;50.508;10.436;2023-03-14T04:04:44;8.80;99.90
16964;DHT22;8598;50.508;10.436;2023-03-14T04:07:10;8.80;99.90
16964;DHT22;8598;50.508;10.436;2023-03-14T04:09:39;8.80;99.90
16964;DHT22;8598;50.508;10.436;2023-03-14T04:12:07;8.80;99.90
16964;DHT22;8598;50.508;10.436;2023-03-14T04:14:34;8.80;99.90
16964;DHT22;8598;50.508;10.436;2023-03-14T04:17:00;8.80;99.90
16964;DHT22;8598;50.508;10.436;2023-03-14T04:19:27;8.80;99.90
16964;DHT22;8598;50.508;10.436;2023-03-14T04:21:53;8.80;99.90
16964;DHT22;8598;50.508;10.436;2023-03-14T04:24:20;8.80;99.90
16964;DHT22;8598;50.508;10.436;2023-03-14T04:26:47;8.80;99.90
16964;DHT22;8598;50.508;10.436;2023-03-14T04:29:15;8.80;99.90
16964;DHT22;8598;50.508;10.436;2023-03-14T04:31:41;8.70;99.90
16964;DHT22;8598;50.508;10.436;2023-03-14T04:34:08;8.70;99.90
16964;DHT22;8598;50.508;10.436;2023-03-14T04:36:34;8.60;99.90
16964;DHT22;8598;50.508;10.436;2023-03-14T04:39:01;8.60;99.90
16964;DHT22;8598;50.508;10.436;2023-03-14T04:41:29;8.60;99.90
16964;DHT22;8598;50.508;10.436;2023-03-14T04:43:56;8.60;99.90
16964;DHT22;8598;50.508;10.436;2023-03-14T04:46:24;8.70;99.90
16964;DHT22;8598;50.508;10.436;2023-03-14T04:48:50;8.70;99.90
16964;DHT22;8598;50.508;10.436;2023-03-14T04:51:17;8.70;99.90
16964;DHT22;8598;50.508;10.436;2023-03-14T04:53:43;8.70;99.90
16964;DHT22;8598;50.508;10.436;2023-03-14T04:56:12;8.70;99.90
16964;DHT22;8598;50.508;10.436;2023-03-14T04:58:39;8.70;99.90
16964;DHT22;8598;50.508;10.436;2023-03-14T05:01:06;8.70;99.90
16964;DHT22;8598;50.508;10.436;2023-03-14T05:03:34;8.70;99.90
16964;DHT22;8598;50.508;10.436;2023-03-14T05:06:03;8.70;99.90
16964;DHT22;8598;50.508;10.436;2023-03-14T05:08:30;8.70;99.90
16964;DHT22;8598;50.508;10.436;2023-03-14T05:10:57;8.70;99.90
16964;DHT22;8598;50.508;10.436;2023-03-14T05:13:24;8.70;99.90
16964;DHT22;8598;50.508;10.436;2023-03-14T05:15:51;8.70;99.90
16964;DHT22;8598;50.508;10.436;2023-03-14T05:18:18;8.70;99.90
16964;DHT22;8598;50.508;10.436;2023-03-14T05:20:46;8.70;99.90
16964;DHT22;8598;50.508;10.436;2023-03-14T05:23:12;8.70;99.90
16964;DHT22;8598;50.508;10.436;2023-03-14T05:25:39;8.70;99.90
16964;DHT22;8598;50.508;10.436;2023-03-14T05:28:05;8.70;99.90
16964;DHT22;8598;50.508;10.436;2023-03-14T05:30:32;8.60;99.90
16964;DHT22;8598;50.508;10.436;2023-03-14T05:32:59;8.60;99.90
16964;DHT22;8598;50.508;10.436;2023-03-14T05:35:25;8.70;99.90
16964;DHT22;8598;50.508;10.436;2023-03-14T05:37:53;8.60;99.90
16964;DHT22;8598;50.508;10.436;2023-03-14T05:40:20;8.60;99.90
16964;DHT22;8598;50.508;10.436;2023-03-14T05:42:46;8.60;99.90
16964;DHT22;8598;50.508;10.436;2023-03-14T05:45:13;8.60;99.90
16964;DHT22;8598;50.508;10.436;2023-03-14T05:47:40;8.60;99.90
16964;DHT22;8598;50.508;10.436;2023-03-14T05:50:07;8.60;99.90
16964;DHT22;8598;50.508;10.436;2023-03-14T05:52:34;8.70;99.90
16964;DHT22;8598;50.508;10.436;2023-03-14T05:55:02;8.60;99.90
16964;DHT22;8598;50.508;10.436;2023-03-14T05:57:29;8.60;99.90
16964;DHT22;8598;50.508;10.436;2023-03-14T05:59:55;8.60;99.90
16964;DHT22;8598;50.508;10.436;2023-03-14T06:02:22;8.70;99.90
16964;DHT22;8598;50.508;10.436;2023-03-14T06:04:49;8.70;99.90
16964;DHT22;8598;50.508;10.436;2023-03-14T06:07:15;8.70;99.90
16964;DHT22;8598;50.508;10.436;2023-03-14T06:09:42;8.70;99.90
16964;DHT22;8598;50.508;10.436;2023-03-14T06:12:10;8.70;99.90
16964;DHT22;8598;50.508;10.436;2023-03-14T06:14:37;8.70;99.90
16964;DHT22;8598;50.508;10.436;2023-03-14T06:17:03;8.70;99.90
16964;DHT22;8598;50.508;10.436;2023-03-14T06:19:30;8.70;99.90
16964;DHT22;8598;50.508;10.436;2023-03-14T06:21:56;8.70;99.90
16964;DHT22;8598;50.508;10.436;2023-03-14T06:24:23;8.70;99.90
16964;DHT22;8598;50.508;10.436;2023-03-14T06:26:50;8.70;99.90
16964;DHT22;8598;50.508;10.436;2023-03-14T06:29:18;8.70;99.90
16964;DHT22;8598;50.508;10.436;2023-03-14T06:31:44;8.70;99.90
16964;DHT22;8598;50.508;10.436;2023-03-14T06:34:12;8.70;99.90
16964;DHT22;8598;50.508;10.436;2023-03-14T06:36:39;8.70;99.90
16964;DHT22;8598;50.508;10.436;2023-03-14T06:39:05;8.70;99.90
16964;DHT22;8598;50.508;10.436;2023-03-14T06:41:32;8.70;99.90
16964;DHT22;8598;50.508;10.436;2023-03-14T06:43:59;8.70;99.90
16964;DHT22;8598;50.508;10.436;2023-03-14T06:46:27;8.70;99.90
16964;DHT22;8598;50.508;10.436;2023-03-14T06:48:53;8.80;99.90
16964;DHT22;8598;50.508;10.436;2023-03-14T06:51:20;8.70;99.90
16964;DHT22;8598;50.508;10.436;2023-03-14T06:53:47;8.70;99.90
16964;DHT22;8598;50.508;10.436;2023-03-14T06:56:13;8.70;99.90
16964;DHT22;8598;50.508;10.436;2023-03-14T06:58:40;8.80;99.90
16964;DHT22;8598;50.508;10.436;2023-03-14T07:01:17;8.80;99.90
16964;DHT22;8598;50.508;10.436;2023-03-14T07:03:47;8.90;99.90
16964;DHT22;8598;50.508;10.436;2023-03-14T07:06:13;8.90;99.90
16964;DHT22;8598;50.508;10.436;2023-03-14T07:08:40;9.00;99.90
16964;DHT22;8598;50.508;10.436;2023-03-14T07:11:07;9.00;99.90
16964;DHT22;8598;50.508;10.436;2023-03-14T07:13:35;9.00;99.90
16964;DHT22;8598;50.508;10.436;2023-03-14T07:16:02;9.00;99.90
16964;DHT22;8598;50.508;10.436;2023-03-14T07:18:29;9.00;99.90
16964;DHT22;8598;50.508;10.436;2023-03-14T07:20:57;9.10;99.90
16964;DHT22;8598;50.508;10.436;2023-03-14T07:23:23;9.10;99.90
16964;DHT22;8598;50.508;10.436;2023-03-14T07:25:50;9.10;99.90
16964;DHT22;8598;50.508;10.436;2023-03-14T07:28:19;9.10;99.90
16964;DHT22;8598;50.508;10.436;2023-03-14T07:30:46;9.10;99.90
16964;DHT22;8598;50.508;10.436;2023-03-14T07:33:12;9.20;99.90
16964;DHT22;8598;50.508;10.436;2023-03-14T07:35:39;9.20;99.90
16964;DHT22;8598;50.508;10.436;2023-03-14T07:38:07;9.20;99.90
16964;DHT22;8598;50.508;10.436;2023-03-14T07:40:33;9.30;99.90
16964;DHT22;8598;50.508;10.436;2023-03-14T07:43:00;9.40;99.90
16964;DHT22;8598;50.508;10.436;2023-03-14T07:45:27;9.50;99.90
16964;DHT22;8598;50.508;10.436;2023-03-14T07:47:53;9.80;99.90
16964;DHT22;8598;50.508;10.436;2023-03-14T07:50:22;10.00;99.90
16964;DHT22;8598;50.508;10.436;2023-03-14T07:52:49;10.10;99.90
16964;DHT22;8598;50.508;10.436;2023-03-14T07:55:17;10.10;99.90
16964;DHT22;8598;50.508;10.436;2023-03-14T07:57:44;10.10;99.90
16964;DHT22;8598;50.508;10.436;2023-03-14T08:00:11;10.10;99.90
16964;DHT22;8598;50.508;10.436;2023-03-14T08:02:39;10.00;99.90
16964;DHT22;8598;50.508;10.436;2023-03-14T08:05:06;10.00;99.90
16964;DHT22;8598;50.508;10.436;2023-03-14T08:07:33;9.90;99.90
16964;DHT22;8598;50.508;10.436;2023-03-14T08:10:00;9.80;99.90
16964;DHT22;8598;50.508;10.436;2023-03-14T08:12:27;9.70;99.90
16964;DHT22;8598;50.508;10.436;2023-03-14T08:14:54;9.70;99.90
16964;DHT22;8598;50.508;10.436;2023-03-14T08:17:21;9.70;99.90
16964;DHT22;8598;50.508;10.436;2023-03-14T08:19:47;9.70;99.90
16964;DHT22;8598;50.508;10.436;2023-03-14T08:22:14;9.70;99.90
16964;DHT22;8598;50.508;10.436;2023-03-14T08:24:40;9.60;99.90
16964;DHT22;8598;50.508;10.436;2023-03-14T08:27:07;9.60;99.90
16964;DHT22;8598;50.508;10.436;2023-03-14T08:29:35;9.60;99.90
16964;DHT22;8598;50.508;10.436;2023-03-14T08:32:02;9.60;99.90
16964;DHT22;8598;50.508;10.436;2023-03-14T08:34:28;9.60;99.90
16964;DHT22;8598;50.508;10.436;2023-03-14T08:36:55;9.60;99.90
16964;DHT22;8598;50.508;10.436;2023-03-14T08:39:22;9.70;99.90
16964;DHT22;8598;50.508;10.436;2023-03-14T08:41:49;9.70;99.90
16964;DHT22;8598;50.508;10.436;2023-03-14T08:44:16;9.70;99.90
16964;DHT22;8598;50.508;10.436;2023-03-14T08:46:44;9.70;99.90
16964;DHT22;8598;50.508;10.436;2023-03-14T08:49:10;9.70;99.90
16964;DHT22;8598;50.508;10.436;2023-03-14T08:51:37;9.70;99.90
16964;DHT22;8598;50.508;10.436;2023-03-14T08:54:03;9.80;99.90
16964;DHT22;8598;50.508;10.436;2023-03-14T08:56:30;9.70;99.90
16964;DHT22;8598;50.508;10.436;2023-03-14T08:58:57;9.80;99.90
16964;DHT22;8598;50.508;10.436;2023-03-14T09:01:23;9.90;99.90
16964;DHT22;8598;50.508;10.436;2023-03-14T09:03:52;10.00;99.90
16964;DHT22;8598;50.508;10.436;2023-03-14T09:06:19;10.10;99.90
16964;DHT22;8598;50.508;10.436;2023-03-14T09:08:46;10.20;99.90
16964;DHT22;8598;50.508;10.436;2023-03-14T09:11:13;10.20;99.90
16964;DHT22;8598;50.508;10.436;2023-03-14T09:13:40;10.30;99.90
16964;DHT22;8598;50.508;10.436;2023-03-14T09:16:07;10.40;99.90
16964;DHT22;8598;50.508;10.436;2023-03-14T09:18:35;10.50;99.90
16964;DHT22;8598;50.508;10.436;2023-03-14T09:21:03;10.50;99.90
16964;DHT22;8598;50.508;10.436;2023-03-14T09:23:30;10.60;99.90
16964;DHT22;8598;50.508;10.436;2023-03-14T09:25:56;10.60;99.90
16964;DHT22;8598;50.508;10.436;2023-03-14T09:28:24;10.70;99.90
16964;DHT22;8598;50.508;10.436;2023-03-14T09:30:51;10.80;99.90
16964;DHT22;8598;50.508;10.436;2023-03-14T09:33:18;10.80;99.90
16964;DHT22;8598;50.508;10.436;2023-03-14T09:35:45;10.80;99.90
16964;DHT22;8598;50.508;10.436;2023-03-14T09:38:13;10.80;99.90
16964;DHT22;8598;50.508;10.436;2023-03-14T09:40:39;10.90;99.90
16964;DHT22;8598;50.508;10.436;2023-03-14T09:43:10;11.10;99.90
16964;DHT22;8598;50.508;10.436;2023-03-14T09:45:39;11.10;99.90
16964;DHT22;8598;50.508;10.436;2023-03-14T09:48:14;11.10;99.90
16964;DHT22;8598;50.508;10.436;2023-03-14T09:50:43;11.30;99.90
16964;DHT22;8598;50.508;10.436;2023-03-14T09:53:14;11.30;99.90
16964;DHT22;8598;50.508;10.436;2023-03-14T09:55:43;11.30;99.90
16964;DHT22;8598;50.508;10.436;2023-03-14T09:58:13;11.30;99.90
16964;DHT22;8598;50.508;10.436;2023-03-14T10:00:40;11.40;99.90
16964;DHT22;8598;50.508;10.436;2023-03-14T10:03:21;11.40;99.90
16964;DHT22;8598;50.508;10.436;2023-03-14T10:05:49;11.60;99.90
16964;DHT22;8598;50.508;10.436;2023-03-14T10:08:17;11.80;99.90
16964;DHT22;8598;50.508;10.436;2023-03-14T10:10:43;12.00;99.90
16964;DHT22;8598;50.508;10.436;2023-03-14T10:13:15;12.10;99.90
16964;DHT22;8598;50.508;10.436;2023-03-14T10:15:43;11.90;99.90
16964;DHT22;8598;50.508;10.436;2023-03-14T10:18:13;11.70;99.90
16964;DHT22;8598;50.508;10.436;2023-03-14T10:20:41;11.70;99.90
16964;DHT22;8598;50.508;10.436;2023-03-14T10:23:23;11.60;99.90
16964;DHT22;8598;50.508;10.436;2023-03-14T10:26:00;11.70;99.90
16964;DHT22;8598;50.508;10.436;2023-03-14T10:28:30;11.60;99.90
16964;DHT22;8598;50.508;10.436;2023-03-14T10:30:58;11.40;99.90
16964;DHT22;8598;50.508;10.436;2023-03-14T10:33:26;11.30;99.90
16964;DHT22;8598;50.508;10.436;2023-03-14T10:35:55;11.30;99.90
16964;DHT22;8598;50.508;10.436;2023-03-14T10:38:25;11.20;99.90
16964;DHT22;8598;50.508;10.436;2023-03-14T10:40:54;11.30;99.90
16964;DHT22;8598;50.508;10.436;2023-03-14T10:43:23;11.20;99.90
16964;DHT22;8598;50.508;10.436;2023-03-14T10:45:54;11.20;99.90
16964;DHT22;8598;50.508;10.436;2023-03-14T10:48:28;11.30;99.90
16964;DHT22;8598;50.508;10.436;2023-03-14T10:50:57;11.60;99.90
16964;DHT22;8598;50.508;10.436;2023-03-14T10:53:25;11.60;99.90
16964;DHT22;8598;50.508;10.436;2023-03-14T10:55:53;11.70;99.90
16964;DHT22;8598;50.508;10.436;2023-03-14T10:58:24;11.80;99.90
16964;DHT22;8598;50.508;10.436;2023-03-14T11:00:59;11.90;99.90
16964;DHT22;8598;50.508;10.436;2023-03-14T11:03:30;12.00;99.90
16964;DHT22;8598;50.508;10.436;2023-03-14T11:06:01;12.10;99.90
16964;DHT22;8598;50.508;10.436;2023-03-14T11:08:37;12.10;99.90
16964;DHT22;8598;50.508;10.436;2023-03-14T11:11:15;12.20;99.90
16964;DHT22;8598;50.508;10.436;2023-03-14T11:13:57;12.40;99.90
16964;DHT22;8598;50.508;10.436;2023-03-14T11:16:30;12.60;99.90
16964;DHT22;8598;50.508;10.436;2023-03-14T11:22:05;12.40;99.90
16964;DHT22;8598;50.508;10.436;2023-03-14T11:27:38;12.60;99.90
16964;DHT22;8598;50.508;10.436;2023-03-14T11:30:15;12.90;99.90
16964;DHT22;8598;50.508;10.436;2023-03-14T11:32:45;13.00;99.90
16964;DHT22;8598;50.508;10.436;2023-03-14T11:35:19;13.10;99.90
16964;DHT22;8598;50.508;10.436;2023-03-14T11:37:50;13.20;99.90
16964;DHT22;8598;50.508;10.436;2023-03-14T11:40:21;12.90;99.90
16964;DHT22;8598;50.508;10.436;2023-03-14T11:42:54;12.90;99.90
16964;DHT22;8598;50.508;10.436;2023-03-14T11:45:26;13.00;99.90
16964;DHT22;8598;50.508;10.436;2023-03-14T11:48:02;13.20;99.90
16964;DHT22;8598;50.508;10.436;2023-03-14T11:50:30;13.00;99.90
16964;DHT22;8598;50.508;10.436;2023-03-14T11:53:03;12.90;99.90
16964;DHT22;8598;50.508;10.436;2023-03-14T11:55:33;12.70;99.90
16964;DHT22;8598;50.508;10.436;2023-03-14T11:58:05;12.30;99.90
16964;DHT22;8598;50.508;10.436;2023-03-14T12:00:38;12.40;99.90
16964;DHT22;8598;50.508;10.436;2023-03-14T12:03:12;12.30;99.90
16964;DHT22;8598;50.508;10.436;2023-03-14T12:05:48;12.10;99.90
16964;DHT22;8598;50.508;10.436;2023-03-14T12:08:37;11.90;99.90
16964;DHT22;8598;50.508;10.436;2023-03-14T12:11:12;12.00;99.90
16964;DHT22;8598;50.508;10.436;2023-03-14T12:13:40;12.10;99.90
16964;DHT22;8598;50.508;10.436;2023-03-14T12:22:19;12.10;99.90
16964;DHT22;8598;50.508;10.436;2023-03-14T12:24:50;11.90;99.90
16964;DHT22;8598;50.508;10.436;2023-03-14T12:27:45;11.80;99.90
16964;DHT22;8598;50.508;10.436;2023-03-14T12:30:27;11.60;99.90
16964;DHT22;8598;50.508;10.436;2023-03-14T12:33:31;11.30;99.90
16964;DHT22;8598;50.508;10.436;2023-03-14T12:39:04;10.90;99.90
16964;DHT22;8598;50.508;10.436;2023-03-14T12:41:40;10.90;99.90
16964;DHT22;8598;50.508;10.436;2023-03-14T12:44:46;10.90;99.90
16964;DHT22;8598;50.508;10.436;2023-03-14T12:47:41;10.90;99.90
16964;DHT22;8598;50.508;10.436;2023-03-14T12:50:15;10.90;99.90
16964;DHT22;8598;50.508;10.436;2023-03-14T12:52:54;10.80;99.90
16964;DHT22;8598;50.508;10.436;2023-03-14T12:55:26;10.70;99.90
16964;DHT22;8598;50.508;10.436;2023-03-14T12:58:00;10.70;99.90
16964;DHT22;8598;50.508;10.436;2023-03-14T13:00:32;10.60;99.90
16964;DHT22;8598;50.508;10.436;2023-03-14T13:03:02;10.70;99.90
16964;DHT22;8598;50.508;10.436;2023-03-14T13:05:52;10.70;99.90
16964;DHT22;8598;50.508;10.436;2023-03-14T13:08:34;10.50;99.90
16964;DHT22;8598;50.508;10.436;2023-03-14T13:11:02;10.50;99.90
16964;DHT22;8598;50.508;10.436;2023-03-14T13:13:30;10.40;99.90
16964;DHT22;8598;50.508;10.436;2023-03-14T13:16:01;10.40;99.90
16964;DHT22;8598;50.508;10.436;2023-03-14T13:18:34;10.30;99.90
16964;DHT22;8598;50.508;10.436;2023-03-14T13:21:03;10.30;99.90
16964;DHT22;8598;50.508;10.436;2023-03-14T13:23:34;10.30;99.90
16964;DHT22;8598;50.508;10.436;2023-03-14T13:26:02;10.30;99.90
16964;DHT22;8598;50.508;10.436;2023-03-14T13:28:30;10.30;99.90
16964;DHT22;8598;50.508;10.436;2023-03-14T13:30:58;10.10;99.90
16964;DHT22;8598;50.508;10.436;2023-03-14T13:33:28;10.20;99.90
16964;DHT22;8598;50.508;10.436;2023-03-14T13:35:56;10.10;99.90
16964;DHT22;8598;50.508;10.436;2023-03-14T13:38:25;10.00;99.90
16964;DHT22;8598;50.508;10.436;2023-03-14T13:40:54;10.00;99.90
16964;DHT22;8598;50.508;10.436;2023-03-14T13:43:28;10.00;99.90
16964;DHT22;8598;50.508;10.436;2023-03-14T13:46:01;9.90;99.90
16964;DHT22;8598;50.508;10.436;2023-03-14T13:48:32;10.00;99.90
16964;DHT22;8598;50.508;10.436;2023-03-14T13:51:01;10.00;99.90
16964;DHT22;8598;50.508;10.436;2023-03-14T13:53:30;9.90;99.90
16964;DHT22;8598;50.508;10.436;2023-03-14T13:55:57;9.90;99.90
16964;DHT22;8598;50.508;10.436;2023-03-14T13:58:28;9.80;99.90
16964;DHT22;8598;50.508;10.436;2023-03-14T14:01:10;9.80;99.90
16964;DHT22;8598;50.508;10.436;2023-03-14T14:03:41;9.70;99.90
16964;DHT22;8598;50.508;10.436;2023-03-14T14:06:16;9.30;99.90
16964;DHT22;8598;50.508;10.436;2023-03-14T14:08:46;9.00;99.90
16964;DHT22;8598;50.508;10.436;2023-03-14T14:11:19;8.80;99.90
16964;DHT22;8598;50.508;10.436;2023-03-14T14:13:47;8.80;99.90
16964;DHT22;8598;50.508;10.436;2023-03-14T14:16:16;8.70;99.90
16964;DHT22;8598;50.508;10.436;2023-03-14T14:18:48;8.60;99.90
16964;DHT22;8598;50.508;10.436;2023-03-14T14:21:15;8.50;99.90
16964;DHT22;8598;50.508;10.436;2023-03-14T14:23:41;8.50;99.90
16964;DHT22;8598;50.508;10.436;2023-03-14T14:26:15;8.40;99.90
16964;DHT22;8598;50.508;10.436;2023-03-14T14:28:43;8.50;99.90
16964;DHT22;8598;50.508;10.436;2023-03-14T14:31:19;8.40;99.90
16964;DHT22;8598;50.508;10.436;2023-03-14T14:33:54;8.30;99.90
16964;DHT22;8598;50.508;10.436;2023-03-14T14:36:23;8.30;99.90
16964;DHT22;8598;50.508;10.436;2023-03-14T14:38:51;8.10;99.90
16964;DHT22;8598;50.508;10.436;2023-03-14T14:41:19;8.10;99.90
16964;DHT22;8598;50.508;10.436;2023-03-14T14:43:46;8.00;99.90
16964;DHT22;8598;50.508;10.436;2023-03-14T14:46:18;8.00;99.90
16964;DHT22;8598;50.508;10.436;2023-03-14T14:48:45;8.00;99.90
16964;DHT22;8598;50.508;10.436;2023-03-14T14:51:23;7.90;99.90
16964;DHT22;8598;50.508;10.436;2023-03-14T14:54:02;8.00;99.90
16964;DHT22;8598;50.508;10.436;2023-03-14T14:56:29;8.00;99.90
16964;DHT22;8598;50.508;10.436;2023-03-14T14:58:58;8.10;99.90
16964;DHT22;8598;50.508;10.436;2023-03-14T15:01:32;8.00;99.90
16964;DHT22;8598;50.508;10.436;2023-03-14T15:03:59;7.90;99.90
16964;DHT22;8598;50.508;10.436;2023-03-14T15:06:29;7.80;99.90
16964;DHT22;8598;50.508;10.436;2023-03-14T15:08:57;7.60;99.90
16964;DHT22;8598;50.508;10.436;2023-03-14T15:11:25;7.50;99.90
16964;DHT22;8598;50.508;10.436;2023-03-14T15:13:52;7.40;99.90
16964;DHT22;8598;50.508;10.436;2023-03-14T15:16:21;7.30;99.90
16964;DHT22;8598;50.508;10.436;2023-03-14T15:18:52;7.30;99.90
16964;DHT22;8598;50.508;10.436;2023-03-14T15:21:19;7.10;99.90
16964;DHT22;8598;50.508;10.436;2023-03-14T15:23:47;7.00;99.90
16964;DHT22;8598;50.508;10.436;2023-03-14T15:26:16;6.90;99.90
16964;DHT22;8598;50.508;10.436;2023-03-14T15:28:43;6.70;99.90
16964;DHT22;8598;50.508;10.436;2023-03-14T15:31:12;6.70;99.90
16964;DHT22;8598;50.508;10.436;2023-03-14T15:33:38;6.70;99.90
16964;DHT22;8598;50.508;10.436;2023-03-14T15:36:10;6.80;99.90
16964;DHT22;8598;50.508;10.436;2023-03-14T15:38:39;6.80;99.90
16964;DHT22;8598;50.508;10.436;2023-03-14T15:41:09;6.90;99.90
16964;DHT22;8598;50.508;10.436;2023-03-14T15:43:36;6.80;99.90
16964;DHT22;8598;50.508;10.436;2023-03-14T15:46:02;6.90;99.90
16964;DHT22;8598;50.508;10.436;2023-03-14T15:48:31;6.90;99.90
16964;DHT22;8598;50.508;10.436;2023-03-14T15:50:58;6.90;99.90
16964;DHT22;8598;50.508;10.436;2023-03-14T15:53:24;6.90;99.90
16964;DHT22;8598;50.508;10.436;2023-03-14T15:55:51;6.80;99.90
16964;DHT22;8598;50.508;10.436;2023-03-14T15:58:20;6.60;99.90
16964;DHT22;8598;50.508;10.436;2023-03-14T16:00:46;6.50;99.90
16964;DHT22;8598;50.508;10.436;2023-03-14T16:03:13;6.10;99.90
16964;DHT22;8598;50.508;10.436;2023-03-14T16:05:40;5.70;99.90
16964;DHT22;8598;50.508;10.436;2023-03-14T16:08:07;5.60;99.90
16964;DHT22;8598;50.508;10.436;2023-03-14T16:10:34;5.80;99.90
16964;DHT22;8598;50.508;10.436;2023-03-14T16:13:01;5.90;99.90